createdAt,value
2023-07-21T00:00:33.257Z,4.18
2023-07-21T00:02:59.514Z,4.07
2023-07-21T00:05:25.833Z,4.45
2023-07-21T00:07:52.100Z,4.15
2023-07-21T00:10:18.352Z,4.15
2023-07-21T00:12:45.792Z,4.40
2023-07-21T00:15:12.011Z,5.15
2023-07-21T00:17:38.730Z,5.18
2023-07-21T00:20:05.000Z,5.05
2023-07-21T00:22:31.215Z,4.72
2023-07-21T00:24:57.469Z,5.05
2023-07-21T00:27:23.760Z,5.10
2023-07-21T00:29:49.971Z,5.13
2023-07-21T00:32:16.245Z,4.60
2023-07-21T00:34:42.903Z,4.38
2023-07-21T00:37:09.182Z,4.32
2023-07-21T00:39:35.484Z,5.03
2023-07-21T00:42:01.785Z,4.50
2023-07-21T00:44:28.006Z,5.25
2023-07-21T00:46:54.280Z,4.72
2023-07-21T00:49:21.281Z,4.53
2023-07-21T00:51:47.650Z,4.10
2023-07-21T00:54:13.946Z,4.70
2023-07-21T00:56:40.218Z,4.60
2023-07-21T00:59:06.487Z,4.70
2023-07-21T01:01:32.765Z,4.20
2023-07-21T01:03:59.069Z,4.10
2023-07-21T01:06:25.491Z,4.28
2023-07-21T01:11:18.197Z,3.80
2023-07-21T01:13:44.463Z,3.83
2023-07-21T01:16:10.710Z,3.95
2023-07-21T01:18:36.994Z,3.83
2023-07-21T01:21:03.267Z,4.00
2023-07-21T01:23:29.561Z,3.42
2023-07-21T01:25:55.866Z,3.97
2023-07-21T01:28:22.080Z,4.13
2023-07-21T01:30:48.471Z,3.55
2023-07-21T01:33:14.782Z,3.92
2023-07-21T01:35:41.096Z,4.10
2023-07-21T01:38:07.381Z,4.38
2023-07-21T01:40:33.672Z,4.32
2023-07-21T01:42:59.911Z,4.10
2023-07-21T01:45:26.144Z,4.78
2023-07-21T01:47:52.494Z,5.15
2023-07-21T01:50:18.779Z,3.67
2023-07-21T01:52:45.034Z,3.85
2023-07-21T01:55:11.334Z,3.67
2023-07-21T01:57:37.566Z,3.83
2023-07-21T02:00:04.310Z,4.18
2023-07-21T02:02:30.702Z,4.20
2023-07-21T02:04:57.138Z,4.10
2023-07-21T02:07:23.455Z,3.90
2023-07-21T02:09:49.717Z,3.90
2023-07-21T02:12:15.992Z,4.10
2023-07-21T02:14:42.266Z,3.95
2023-07-21T02:17:08.677Z,3.85
2023-07-21T02:19:35.008Z,3.45
2023-07-21T02:22:01.611Z,4.15
2023-07-21T02:24:27.945Z,3.42
2023-07-21T02:26:54.249Z,3.55
2023-07-21T02:29:20.562Z,3.35
2023-07-21T02:31:46.977Z,3.60
2023-07-21T02:34:13.676Z,2.97
2023-07-21T02:36:39.912Z,2.78
2023-07-21T02:39:06.179Z,2.60
2023-07-21T02:41:32.512Z,2.30
2023-07-21T02:43:58.794Z,3.00
2023-07-21T02:46:25.306Z,2.55
2023-07-21T02:48:51.736Z,2.38
2023-07-21T02:51:18.379Z,2.60
2023-07-21T02:53:44.631Z,2.42
2023-07-21T02:56:10.972Z,2.47
2023-07-21T02:58:37.386Z,2.30
2023-07-21T03:01:03.825Z,2.15
2023-07-21T03:03:30.299Z,2.10
2023-07-21T03:05:56.999Z,1.67
2023-07-21T03:08:23.261Z,1.90
2023-07-21T03:10:49.669Z,1.67
2023-07-21T03:13:15.999Z,1.70
2023-07-21T03:15:42.287Z,1.80
2023-07-21T03:18:08.561Z,1.73
2023-07-21T03:20:34.893Z,2.38
2023-07-21T03:23:01.242Z,1.92
2023-07-21T03:25:27.530Z,2.17
2023-07-21T03:27:53.782Z,1.85
2023-07-21T03:30:20.088Z,1.73
2023-07-21T03:32:56.006Z,2.33
2023-07-21T03:35:22.305Z,2.60
2023-07-21T03:37:48.588Z,2.10
2023-07-21T03:40:14.894Z,2.30
2023-07-21T03:42:41.172Z,2.10
2023-07-21T03:45:07.466Z,2.10
2023-07-21T03:47:33.874Z,2.00
2023-07-21T03:50:00.281Z,2.38
2023-07-21T03:52:26.560Z,2.53
2023-07-21T03:54:52.911Z,2.55
2023-07-21T03:57:19.206Z,2.20
2023-07-21T03:59:45.484Z,2.30
2023-07-21T04:02:11.758Z,2.70
2023-07-21T04:04:38.129Z,2.40
2023-07-21T04:07:04.502Z,2.65
2023-07-21T04:09:30.725Z,2.97
2023-07-21T04:11:56.960Z,2.67
2023-07-21T04:14:23.225Z,2.70
2023-07-21T04:16:49.500Z,2.42
2023-07-21T04:19:15.764Z,3.22
2023-07-21T04:21:42.040Z,2.97
2023-07-21T04:24:08.295Z,3.30
2023-07-21T04:26:34.514Z,3.40
2023-07-21T04:29:00.727Z,3.30
2023-07-21T04:31:27.117Z,3.55
2023-07-21T04:33:53.440Z,3.00
2023-07-21T04:36:19.666Z,3.25
2023-07-21T04:38:45.947Z,3.60
2023-07-21T04:41:12.227Z,3.45
2023-07-21T04:43:38.508Z,4.00
2023-07-21T04:46:04.770Z,3.95
2023-07-21T04:48:31.058Z,3.30
2023-07-21T04:50:57.306Z,3.28
2023-07-21T04:53:23.584Z,4.20
2023-07-21T04:55:49.834Z,4.40
2023-07-21T04:58:16.072Z,4.80
2023-07-21T05:00:42.349Z,4.68
2023-07-21T05:03:08.805Z,5.15
2023-07-21T05:05:35.112Z,4.45
2023-07-21T05:08:01.386Z,4.95
2023-07-21T05:10:27.677Z,4.80
2023-07-21T05:12:53.960Z,5.82
2023-07-21T05:15:20.354Z,6.47
2023-07-21T05:17:49.711Z,7.47
2023-07-21T05:20:15.990Z,7.07
2023-07-21T05:22:42.281Z,8.05
2023-07-21T05:25:08.597Z,9.05
2023-07-21T05:27:34.866Z,9.43
2023-07-21T05:30:01.092Z,9.40
2023-07-21T05:32:27.415Z,10.00
2023-07-21T05:34:53.732Z,8.27
2023-07-21T05:37:19.948Z,9.18
2023-07-21T05:39:46.150Z,8.95
2023-07-21T05:42:12.424Z,8.27
2023-07-21T05:44:38.716Z,7.20
2023-07-21T05:47:05.040Z,8.60
2023-07-21T05:49:31.359Z,7.00
2023-07-21T05:51:58.052Z,6.85
2023-07-21T05:54:24.342Z,7.20
2023-07-21T05:56:50.726Z,8.30
2023-07-21T05:59:17.092Z,9.88
2023-07-21T06:01:43.367Z,8.88
2023-07-21T06:04:09.653Z,9.35
2023-07-21T06:06:35.947Z,10.00
2023-07-21T06:09:02.201Z,7.88
2023-07-21T06:11:28.485Z,7.75
2023-07-21T06:13:54.837Z,7.50
2023-07-21T06:16:21.129Z,8.02
2023-07-21T06:18:47.406Z,8.63
2023-07-21T06:21:13.655Z,7.65
2023-07-21T06:23:39.936Z,7.50
2023-07-21T06:26:07.207Z,7.70
2023-07-21T06:28:33.517Z,7.53
2023-07-21T06:30:59.929Z,6.40
2023-07-21T06:33:26.271Z,6.05
2023-07-21T06:35:52.577Z,6.03
2023-07-21T06:38:18.876Z,6.00
2023-07-21T06:40:45.160Z,5.18
2023-07-21T06:43:11.420Z,5.53
2023-07-21T06:45:37.726Z,5.20
2023-07-21T06:48:04.136Z,4.85
2023-07-21T06:50:30.447Z,5.65
2023-07-21T06:52:56.695Z,5.78
2023-07-21T06:55:22.916Z,6.72
2023-07-21T06:57:49.171Z,6.55
2023-07-21T07:00:15.428Z,5.82
2023-07-21T07:02:41.698Z,6.97
2023-07-21T07:05:08.029Z,6.20
2023-07-21T07:07:34.416Z,6.75
2023-07-21T07:10:00.734Z,6.32
2023-07-21T07:12:27.081Z,6.35
2023-07-21T07:14:53.374Z,6.32
2023-07-21T07:17:19.655Z,6.38
2023-07-21T07:19:45.927Z,8.10
2023-07-21T07:22:12.167Z,7.72
2023-07-21T07:24:38.519Z,7.47
2023-07-21T07:27:04.767Z,7.50
2023-07-21T07:29:30.999Z,7.20
2023-07-21T07:31:57.255Z,6.03
2023-07-21T07:34:23.602Z,7.13
2023-07-21T07:36:49.904Z,7.38
2023-07-21T07:39:16.132Z,6.85
2023-07-21T07:41:42.361Z,6.65
2023-07-21T07:44:08.584Z,6.95
2023-07-21T07:46:34.899Z,5.95
2023-07-21T07:49:01.323Z,6.65
2023-07-21T07:51:27.829Z,6.32
2023-07-21T07:53:54.316Z,6.68
2023-07-21T07:56:20.561Z,6.65
2023-07-21T07:58:46.870Z,6.57
2023-07-21T08:01:13.159Z,6.07
2023-07-21T08:03:39.650Z,6.65
2023-07-21T08:06:06.016Z,5.35
2023-07-21T08:08:32.370Z,6.25
2023-07-21T08:10:58.693Z,8.48
2023-07-21T08:13:25.019Z,6.18
2023-07-21T08:15:51.370Z,5.70
2023-07-21T08:18:17.708Z,4.88
2023-07-21T08:20:44.460Z,5.80
2023-07-21T08:23:19.472Z,6.38
2023-07-21T08:25:50.040Z,6.18
2023-07-21T08:28:16.326Z,5.47
2023-07-21T08:30:56.616Z,5.40
2023-07-21T08:33:24.946Z,5.30
2023-07-21T08:35:51.268Z,6.00
2023-07-21T08:38:17.567Z,6.15
2023-07-21T08:40:43.806Z,6.32
2023-07-21T08:43:10.049Z,7.65
2023-07-21T08:45:36.353Z,5.70
2023-07-21T08:48:02.715Z,5.13
2023-07-21T08:50:31.347Z,5.93
2023-07-21T08:52:57.688Z,5.70
2023-07-21T08:55:23.993Z,4.80
2023-07-21T08:57:50.277Z,4.82
2023-07-21T09:00:16.490Z,5.30
2023-07-21T09:02:44.568Z,4.90
2023-07-21T09:05:11.093Z,5.47
2023-07-21T09:07:37.423Z,5.28
2023-07-21T09:10:04.103Z,5.47
2023-07-21T09:12:30.357Z,5.38
2023-07-21T09:14:56.632Z,5.00
2023-07-21T09:17:22.948Z,4.97
2023-07-21T09:19:49.250Z,5.65
2023-07-21T09:22:15.492Z,4.60
2023-07-21T09:24:41.825Z,4.22
2023-07-21T09:27:08.222Z,4.30
2023-07-21T09:29:34.594Z,3.88
2023-07-21T09:32:00.932Z,4.22
2023-07-21T09:34:27.197Z,3.75
2023-07-21T09:36:53.435Z,4.30
2023-07-21T09:39:19.704Z,4.40
2023-07-21T09:41:46.045Z,4.47
2023-07-21T09:44:12.337Z,3.50
2023-07-21T09:46:38.712Z,3.80
2023-07-21T09:49:04.991Z,3.70
2023-07-21T09:51:31.425Z,3.45
2023-07-21T09:53:57.669Z,3.22
2023-07-21T09:56:24.200Z,2.90
2023-07-21T09:58:50.934Z,2.20
2023-07-21T10:01:17.292Z,2.20
2023-07-21T10:03:43.815Z,2.20
2023-07-21T10:06:10.079Z,2.97
2023-07-21T10:08:36.445Z,2.92
2023-07-21T10:11:02.774Z,2.95
2023-07-21T10:13:29.159Z,2.97
2023-07-21T10:15:55.517Z,3.00
2023-07-21T10:18:21.864Z,3.55
2023-07-21T10:20:48.167Z,3.20
2023-07-21T10:23:14.435Z,3.25
2023-07-21T10:25:40.770Z,2.45
2023-07-21T10:28:07.051Z,2.45
2023-07-21T10:30:33.418Z,2.67
2023-07-21T10:32:59.756Z,2.53
2023-07-21T10:35:26.054Z,2.60
2023-07-21T10:37:52.357Z,2.60
2023-07-21T10:40:18.603Z,2.70
2023-07-21T10:42:44.979Z,2.38
2023-07-21T10:45:11.307Z,2.28
2023-07-21T10:47:37.663Z,2.40
2023-07-21T10:50:03.998Z,2.40
2023-07-21T10:52:30.251Z,3.22
2023-07-21T10:54:56.518Z,2.63
2023-07-21T10:57:22.782Z,2.80
2023-07-21T10:59:49.074Z,2.72
2023-07-21T11:02:15.433Z,1.98
2023-07-21T11:04:42.051Z,2.42
2023-07-21T11:07:08.791Z,2.60
2023-07-21T11:09:35.832Z,2.65
2023-07-21T11:12:02.769Z,2.60
2023-07-21T11:14:29.111Z,2.85
2023-07-21T11:16:55.917Z,2.40
2023-07-21T11:19:22.330Z,3.22
2023-07-21T11:21:50.900Z,3.00
2023-07-21T11:24:18.333Z,2.70
2023-07-21T11:26:44.610Z,2.53
2023-07-21T11:29:11.233Z,2.55
2023-07-21T11:31:37.592Z,2.65
2023-07-21T11:34:03.904Z,2.35
2023-07-21T11:36:30.191Z,2.10
2023-07-21T11:38:56.471Z,2.63
2023-07-21T11:41:22.801Z,2.30
2023-07-21T11:43:49.127Z,1.88
2023-07-21T11:46:15.458Z,1.88
2023-07-21T11:48:41.759Z,1.75
2023-07-21T11:51:08.190Z,2.58
2023-07-21T11:53:34.412Z,2.63
2023-07-21T11:56:00.756Z,1.90
2023-07-21T11:58:27.131Z,2.42
2023-07-21T12:00:53.432Z,2.55
2023-07-21T12:03:19.821Z,2.40
2023-07-21T12:05:46.328Z,2.40
2023-07-21T12:08:12.648Z,2.35
2023-07-21T12:10:39.207Z,2.13
2023-07-21T12:13:05.669Z,3.00
2023-07-21T12:15:31.967Z,3.00
2023-07-21T12:17:58.207Z,2.97
2023-07-21T12:20:24.433Z,2.40
2023-07-21T12:22:50.706Z,2.03
2023-07-21T12:25:16.990Z,2.63
2023-07-21T12:27:45.874Z,2.42
2023-07-21T12:30:12.465Z,2.50
2023-07-21T12:32:39.132Z,3.20
2023-07-21T12:35:05.516Z,2.72
2023-07-21T12:37:32.086Z,1.83
2023-07-21T12:39:58.381Z,1.85
2023-07-21T12:42:24.648Z,2.22
2023-07-21T12:44:50.871Z,2.17
2023-07-21T12:47:17.069Z,2.28
2023-07-21T12:49:43.303Z,2.60
2023-07-21T12:52:10.059Z,2.67
2023-07-21T12:54:36.344Z,2.55
2023-07-21T12:57:02.748Z,2.58
2023-07-21T12:59:29.996Z,2.00
2023-07-21T13:01:56.528Z,1.83
2023-07-21T13:04:23.221Z,2.10
2023-07-21T13:06:49.561Z,1.98
2023-07-21T13:09:15.813Z,1.40
2023-07-21T13:11:42.110Z,1.60
2023-07-21T13:14:08.395Z,1.73
2023-07-21T13:16:34.751Z,1.35
2023-07-21T13:19:01.102Z,1.80
2023-07-21T13:21:27.365Z,1.90
2023-07-21T13:23:53.830Z,1.48
2023-07-21T13:26:20.056Z,1.50
2023-07-21T13:28:51.185Z,1.60
2023-07-21T13:31:17.479Z,1.85
2023-07-21T13:33:43.762Z,1.33
2023-07-21T13:36:10.134Z,1.40
2023-07-21T13:38:36.387Z,1.38
2023-07-21T13:41:02.652Z,1.80
2023-07-21T13:43:28.919Z,1.23
2023-07-21T13:45:55.206Z,3.45
2023-07-21T13:48:21.633Z,2.63
2023-07-21T13:50:48.051Z,3.10
2023-07-21T13:53:14.320Z,2.13
2023-07-21T13:55:40.620Z,1.85
2023-07-21T13:58:06.842Z,1.92
2023-07-21T14:00:33.104Z,2.40
2023-07-21T14:02:59.572Z,2.78
2023-07-21T14:05:25.913Z,2.97
2023-07-21T14:07:52.217Z,3.28
2023-07-21T14:10:18.478Z,3.17
2023-07-21T14:12:45.851Z,3.67
2023-07-21T14:15:12.166Z,3.60
2023-07-21T14:17:38.522Z,2.75
2023-07-21T14:20:04.893Z,1.95
2023-07-21T14:22:31.205Z,1.77
2023-07-21T14:24:57.463Z,1.77
2023-07-21T14:27:23.774Z,1.55
2023-07-21T14:29:50.177Z,1.60
2023-07-21T14:32:16.515Z,1.58
2023-07-21T14:34:42.810Z,1.80
2023-07-21T14:37:09.071Z,2.35
2023-07-21T14:39:35.396Z,2.53
2023-07-21T14:42:01.746Z,3.15
2023-07-21T14:44:28.022Z,2.35
2023-07-21T14:46:54.334Z,2.60
2023-07-21T14:49:20.653Z,2.63
2023-07-21T14:51:46.921Z,2.40
2023-07-21T14:54:13.830Z,3.28
2023-07-21T14:56:40.198Z,3.75
2023-07-21T14:59:06.484Z,5.53
2023-07-21T15:01:32.843Z,6.40
2023-07-21T15:03:59.174Z,6.95
2023-07-21T15:06:25.887Z,6.82
2023-07-21T15:08:52.283Z,6.63
2023-07-21T15:11:18.562Z,6.35
2023-07-21T15:13:44.852Z,5.43
2023-07-21T15:16:11.134Z,5.03
2023-07-21T15:18:37.423Z,4.60
2023-07-21T15:21:03.682Z,4.63
2023-07-21T15:23:29.928Z,4.47
2023-07-21T15:25:56.218Z,4.65
2023-07-21T15:28:22.493Z,3.53
2023-07-21T15:30:50.254Z,3.55
2023-07-21T15:33:16.825Z,3.40
2023-07-21T15:35:43.197Z,3.13
2023-07-21T15:38:09.476Z,3.03
2023-07-21T15:40:35.807Z,3.13
2023-07-21T15:43:02.096Z,2.78
2023-07-21T15:45:28.394Z,3.20
2023-07-21T15:47:54.659Z,2.55
2023-07-21T15:50:20.978Z,1.83
2023-07-21T15:52:47.219Z,1.52
2023-07-21T15:55:14.642Z,1.38
2023-07-21T15:57:40.992Z,1.52
2023-07-21T16:00:07.285Z,1.50
2023-07-21T16:02:33.587Z,1.52
2023-07-21T16:04:59.983Z,1.42
2023-07-21T16:07:26.366Z,1.52
2023-07-21T16:09:56.421Z,1.40
2023-07-21T16:12:22.731Z,1.75
2023-07-21T16:14:48.947Z,1.35
2023-07-21T16:17:15.247Z,2.05
2023-07-21T16:19:41.533Z,1.60
2023-07-21T16:22:07.842Z,1.50
2023-07-21T16:24:34.210Z,1.73
2023-07-21T16:27:01.685Z,1.60
2023-07-21T16:29:27.927Z,2.00
2023-07-21T16:31:54.240Z,1.80
2023-07-21T16:34:20.629Z,2.05
2023-07-21T16:36:46.886Z,2.00
2023-07-21T16:39:13.514Z,2.00
2023-07-21T16:41:39.763Z,2.08
2023-07-21T16:44:05.999Z,2.10
2023-07-21T16:46:32.370Z,2.03
2023-07-21T16:48:58.685Z,2.00
2023-07-21T16:51:25.255Z,2.10
2023-07-21T16:53:51.686Z,1.70
2023-07-21T16:56:18.012Z,1.58
2023-07-21T16:58:44.272Z,2.00
2023-07-21T17:01:10.571Z,2.70
2023-07-21T17:03:37.079Z,1.67
2023-07-21T17:06:03.528Z,1.48
2023-07-21T17:08:29.788Z,2.15
2023-07-21T17:10:56.119Z,1.80
2023-07-21T17:13:22.350Z,1.40
2023-07-21T17:15:48.608Z,2.20
2023-07-21T17:18:14.935Z,3.28
2023-07-21T17:20:41.240Z,2.25
2023-07-21T17:23:07.528Z,1.75
2023-07-21T17:25:33.784Z,1.95
2023-07-21T17:28:00.095Z,2.05
2023-07-21T17:30:26.398Z,1.80
2023-07-21T17:32:54.091Z,2.80
2023-07-21T17:35:20.367Z,2.53
2023-07-21T17:37:46.572Z,2.45
2023-07-21T17:40:13.284Z,2.45
2023-07-21T17:42:39.809Z,2.33
2023-07-21T17:45:06.105Z,2.25
2023-07-21T17:47:32.385Z,2.58
2023-07-21T17:49:58.705Z,2.05
2023-07-21T17:52:24.984Z,2.90
2023-07-21T17:54:51.191Z,3.17
2023-07-21T17:57:17.488Z,2.85
2023-07-21T17:59:43.743Z,2.88
2023-07-21T18:02:10.051Z,3.72
2023-07-21T18:04:36.276Z,3.17
2023-07-21T18:07:02.565Z,3.97
2023-07-21T18:09:28.824Z,3.75
2023-07-21T18:11:55.078Z,2.95
2023-07-21T18:14:21.382Z,3.60
2023-07-21T18:16:47.673Z,2.90
2023-07-21T18:19:13.937Z,2.58
2023-07-21T18:21:40.333Z,3.50
2023-07-21T18:24:06.719Z,3.72
2023-07-21T18:26:33.515Z,3.47
2023-07-21T18:28:59.764Z,3.35
2023-07-21T18:31:26.215Z,3.60
2023-07-21T18:33:52.712Z,3.85
2023-07-21T18:36:18.959Z,4.63
2023-07-21T18:38:45.217Z,4.47
2023-07-21T18:41:11.431Z,5.22
2023-07-21T18:43:37.736Z,4.88
2023-07-21T18:46:06.736Z,5.25
2023-07-21T18:48:32.997Z,4.95
2023-07-21T18:50:59.235Z,5.25
2023-07-21T18:53:25.475Z,4.95
2023-07-21T18:55:51.832Z,4.93
2023-07-21T18:58:18.194Z,5.15
2023-07-21T19:00:44.510Z,4.30
2023-07-21T19:03:10.851Z,4.03
2023-07-21T19:05:37.289Z,5.20
2023-07-21T19:08:03.728Z,4.60
2023-07-21T19:10:30.031Z,4.05
2023-07-21T19:12:56.254Z,4.63
2023-07-21T19:15:22.485Z,4.82
2023-07-21T19:17:48.906Z,7.30
2023-07-21T19:20:15.598Z,4.95
2023-07-21T19:22:41.937Z,4.22
2023-07-21T19:25:08.192Z,3.95
2023-07-21T19:27:36.494Z,5.03
2023-07-21T19:30:02.803Z,5.50
2023-07-21T19:32:29.132Z,5.80
2023-07-21T19:34:55.411Z,6.18
2023-07-21T19:37:21.720Z,6.50
2023-07-21T19:39:48.005Z,6.97
2023-07-21T19:42:14.292Z,7.78
2023-07-21T19:44:40.582Z,7.63
2023-07-21T19:47:06.902Z,7.18
2023-07-21T19:49:33.194Z,7.35
2023-07-21T19:51:59.467Z,7.22
2023-07-21T19:54:25.677Z,6.82
2023-07-21T19:56:51.975Z,7.15
2023-07-21T19:59:18.248Z,8.52
2023-07-21T20:01:44.599Z,8.00
2023-07-21T20:04:11.089Z,8.88
2023-07-21T20:06:37.542Z,8.73
2023-07-21T20:09:03.934Z,8.95
2023-07-21T20:11:30.318Z,9.65
2023-07-21T20:13:56.625Z,9.85
2023-07-21T20:16:23.092Z,9.65
2023-07-21T20:18:49.434Z,9.25
2023-07-21T20:21:15.674Z,8.70
2023-07-21T20:23:41.976Z,9.13
2023-07-21T20:26:08.225Z,8.20
2023-07-21T20:28:34.477Z,9.07
2023-07-21T20:31:00.763Z,8.23
2023-07-21T20:33:27.096Z,8.23
2023-07-21T20:35:53.425Z,7.55
2023-07-21T20:38:19.750Z,8.90
2023-07-21T20:40:46.006Z,8.75
2023-07-21T20:43:12.213Z,8.57
2023-07-21T20:45:38.491Z,8.57
2023-07-21T20:48:05.023Z,7.30
2023-07-21T20:50:31.364Z,8.65
2023-07-21T20:52:57.665Z,7.82
2023-07-21T20:55:23.913Z,7.45
2023-07-21T20:57:50.545Z,7.90
2023-07-21T21:00:16.830Z,7.53
2023-07-21T21:02:46.011Z,7.47
2023-07-21T21:05:12.238Z,8.18
2023-07-21T21:07:38.500Z,6.78
2023-07-21T21:10:04.791Z,8.27
2023-07-21T21:12:31.019Z,7.65
2023-07-21T21:14:57.368Z,7.38
2023-07-21T21:17:24.507Z,7.40
2023-07-21T21:19:50.975Z,7.28
2023-07-21T21:22:17.485Z,7.93
2023-07-21T21:24:43.825Z,8.32
2023-07-21T21:27:10.255Z,7.57
2023-07-21T21:29:36.496Z,7.72
2023-07-21T21:32:02.799Z,7.60
2023-07-21T21:34:29.120Z,7.65
2023-07-21T21:36:55.431Z,7.57
2023-07-21T21:39:21.695Z,7.10
2023-07-21T21:41:47.966Z,7.55
2023-07-21T21:44:14.290Z,8.25
2023-07-21T21:46:40.583Z,7.80
2023-07-21T21:49:06.876Z,7.95
2023-07-21T21:51:33.465Z,8.18
2023-07-21T21:53:59.976Z,9.20
2023-07-21T21:56:26.364Z,8.48
2023-07-21T21:58:52.700Z,7.82
2023-07-21T22:01:19.045Z,8.23
2023-07-21T22:03:45.748Z,7.80
2023-07-21T22:06:12.114Z,8.23
2023-07-21T22:08:38.400Z,9.15
2023-07-21T22:11:04.785Z,8.30
2023-07-21T22:13:32.892Z,8.60
2023-07-21T22:16:00.307Z,7.43
2023-07-21T22:18:26.569Z,8.55
2023-07-21T22:20:53.241Z,8.48
2023-07-21T22:23:19.530Z,8.85
2023-07-21T22:25:45.792Z,8.77
2023-07-21T22:28:12.529Z,8.32
2023-07-21T22:30:38.852Z,8.38
2023-07-21T22:33:05.226Z,7.68
2023-07-21T22:35:31.577Z,8.82
2023-07-21T22:37:57.867Z,8.98
2023-07-21T22:40:27.612Z,7.45
2023-07-21T22:42:53.893Z,7.55
2023-07-21T22:45:20.133Z,8.18
2023-07-21T22:47:46.406Z,8.20
2023-07-21T22:50:12.704Z,7.75
2023-07-21T22:52:39.008Z,7.32
2023-07-21T22:55:05.231Z,7.43
2023-07-21T22:57:31.491Z,7.32
2023-07-21T22:59:57.760Z,7.53
2023-07-21T23:02:24.009Z,7.60
2023-07-21T23:04:50.356Z,7.28
2023-07-21T23:07:16.713Z,7.53
2023-07-21T23:09:43.008Z,7.55
2023-07-21T23:12:09.275Z,6.13
2023-07-21T23:14:35.565Z,7.40
2023-07-21T23:17:01.802Z,7.65
2023-07-21T23:19:28.079Z,7.70
2023-07-21T23:21:54.340Z,7.63
2023-07-21T23:24:20.615Z,7.22
2023-07-21T23:26:46.913Z,7.07
2023-07-21T23:29:13.155Z,7.43
2023-07-21T23:31:39.423Z,7.95
2023-07-21T23:34:05.655Z,7.28
2023-07-21T23:36:31.980Z,6.82
2023-07-21T23:38:58.266Z,7.15
2023-07-21T23:41:24.491Z,7.10
2023-07-21T23:43:50.762Z,7.65
2023-07-21T23:46:17.175Z,7.47
2023-07-21T23:48:43.501Z,6.78
2023-07-21T23:51:09.803Z,7.28
2023-07-21T23:53:36.270Z,7.53
2023-07-21T23:56:02.504Z,7.93
2023-07-21T23:58:28.806Z,8.02
